| time (UTC) | temp F | wind direction | speed MPH | gust MPH | rain 1hr in | rain 24hr in | rain mn in | humidity % | barometer mb |
| 20260506024339 | 68 | 331 | 7.0 | 8.0 | 0.00 | 0.00 | 0.00 | 63 | 1002.6 |
| 20260506023835 | 68 | 331 | 5.0 | 6.0 | 0.00 | 0.00 | 0.00 | 63 | 1003.0 |
| 20260506023331 | 68 | 331 | 5.0 | 7.0 | 0.00 | 0.00 | 0.00 | 63 | 1003.1 |
| 20260506022828 | 68 | 331 | 7.0 | 10.0 | 0.00 | 0.00 | 0.00 | 64 | 1002.8 |
| 20260506022326 | 69 | 331 | 5.0 | 6.0 | 0.00 | 0.00 | 0.00 | 64 | 1002.6 |
| 20260506021824 | 69 | 331 | 5.0 | 6.0 | 0.00 | 0.00 | 0.00 | 64 | 1003.0 |
| 20260506021321 | 69 | 331 | 7.0 | 9.0 | 0.00 | 0.00 | 0.00 | 62 | 1003.1 |
| 20260506020817 | 69 | 331 | 6.0 | 7.0 | 0.00 | 0.00 | 0.00 | 63 | 1003.0 |
| 20260506020315 | 70 | 331 | 3.0 | 5.0 | 0.00 | 0.00 | 0.00 | 63 | 1003.1 |
| 20260506015813 | 70 | 331 | 6.0 | 7.0 | 0.00 | 0.00 | 0.00 | 63 | 1003.1 |
| 20260506015310 | 70 | 331 | 14.0 | 17.0 | 0.00 | 0.00 | 0.00 | 62 | 1003.0 |
| 20260506014806 | 70 | 331 | 7.0 | 11.0 | 0.00 | 0.00 | 0.00 | 63 | 1002.8 |
| 20260506014304 | 70 | 331 | 6.0 | 8.0 | 0.00 | 0.00 | 0.00 | 63 | 1002.9 |
| 20260506013800 | 71 | 331 | 3.0 | 5.0 | 0.00 | 0.00 | 0.00 | 63 | 1002.9 |
| 20260506013257 | 70 | 331 | 5.0 | 7.0 | 0.00 | 0.00 | 0.00 | 62 | 1002.4 |
| 20260506012754 | 70 | 331 | 2.0 | 3.0 | 0.00 | 0.00 | 0.00 | 61 | 1002.5 |
| 20260506012251 | 70 | 331 | 3.0 | 5.0 | 0.00 | 0.00 | 0.00 | 60 | 1002.4 |
| 20260506011748 | 71 | 331 | 4.0 | 6.0 | 0.00 | 0.00 | 0.00 | 59 | 1002.2 |
| 20260506011244 | 71 | 331 | 4.0 | 5.0 | 0.00 | 0.00 | 0.00 | 57 | 1002.3 |
| 20260506010743 | 70 | 331 | 2.0 | 3.0 | 0.00 | 0.00 | 0.00 | 56 | 1002.1 |
| 20260506010240 | 70 | 331 | 2.0 | 2.0 | 0.00 | 0.00 | 0.00 | 56 | 1002.3 |
| 20260506005737 | 68 | 331 | 4.0 | 5.0 | 0.00 | 0.00 | 0.00 | 57 | 1002.1 |
| 20260506005234 | 68 | 331 | 0.0 | 0.0 | 0.00 | 0.00 | 0.00 | 59 | 1001.9 |
| 20260506004729 | 68 | 331 | 0.0 | 0.0 | 0.00 | 0.00 | 0.00 | 58 | 1001.7 |
| 20260506004227 | 69 | 330 | 0.0 | 0.0 | 0.00 | 0.00 | 0.00 | 59 | 1001.7 |
| 20260506003723 | 70 | 331 | 0.0 | 0.0 | 0.00 | 0.00 | 0.00 | 56 | 1001.6 |
| 20260506003220 | 71 | 331 | 0.0 | 0.0 | 0.00 | 0.00 | 0.00 | 52 | 1001.4 |
| 20260506002716 | 72 | 331 | 0.0 | 0.0 | 0.00 | 0.00 | 0.00 | 52 | 1001.2 |
| 20260506002212 | 72 | 331 | 0.0 | 0.0 | 0.00 | 0.00 | 0.00 | 50 | 1001.1 |
| 20260506001708 | 73 | 331 | 1.0 | 1.0 | 0.00 | 0.00 | 0.00 | 49 | 1001.2 |
| 20260506001206 | 73 | 331 | 2.0 | 2.0 | 0.00 | 0.00 | 0.00 | 48 | 1001.3 |
| 20260506000702 | 74 | 331 | 2.0 | 2.0 | 0.00 | 0.00 | 0.00 | 46 | 1001.4 |
| 20260506000200 | 75 | 331 | 1.0 | 1.0 | 0.00 | 0.00 | 0.00 | 46 | 1001.4 |
| 20260505235657 | 75 | 331 | 2.0 | 2.0 | 0.00 | 0.00 | 0.00 | 45 | 1001.1 |
| 20260505235155 | 75 | 331 | 2.0 | 2.0 | 0.00 | 0.00 | 0.00 | 45 | 1001.2 |
| 20260505234652 | 76 | 331 | 2.0 | 2.0 | 0.00 | 0.00 | 0.00 | 43 | 1001.2 |
| 20260505234149 | 77 | 331 | 2.0 | 3.0 | 0.00 | 0.00 | 0.00 | 42 | 1001.4 |
| 20260505233645 | 77 | 331 | 3.0 | 5.0 | 0.00 | 0.00 | 0.00 | 42 | 1001.4 |
| 20260505233143 | 77 | 331 | 4.0 | 5.0 | 0.00 | 0.00 | 0.00 | 41 | 1001.0 |
| 20260505232640 | 78 | 331 | 2.0 | 2.0 | 0.00 | 0.00 | 0.00 | 41 | 1001.1 |
| 20260505232138 | 78 | 331 | 4.0 | 6.0 | 0.00 | 0.00 | 0.00 | 41 | 1001.2 |
| 20260505231634 | 78 | 331 | 3.0 | 3.0 | 0.00 | 0.00 | 0.00 | 41 | 1001.5 |
| 20260505231133 | 78 | 331 | 10.0 | 11.0 | 0.00 | 0.00 | 0.00 | 40 | 1001.6 |
| 20260505230631 | 78 | 331 | 1.0 | 2.0 | 0.00 | 0.00 | 0.00 | 41 | 1001.6 |
| 20260505230127 | 79 | 331 | 3.0 | 3.0 | 0.00 | 0.00 | 0.00 | 40 | 1001.4 |
| 20260505225623 | 78 | 331 | 1.0 | 1.0 | 0.00 | 0.00 | 0.00 | 40 | 1001.5 |
| 20260505225120 | 79 | 331 | 2.0 | 5.0 | 0.00 | 0.00 | 0.00 | 40 | 1001.3 |
| 20260505224617 | 80 | 331 | 5.0 | 6.0 | 0.00 | 0.00 | 0.00 | 38 | 1001.6 |
| 20260505224114 | 80 | 331 | 9.0 | 10.0 | 0.00 | 0.00 | 0.00 | 38 | 1001.7 |
| 20260505223611 | 80 | 331 | 9.0 | 13.0 | 0.00 | 0.00 | 0.00 | 39 | 1001.3 |
| 20260505223107 | 80 | 331 | 4.0 | 5.0 | 0.00 | 0.00 | 0.00 | 39 | 1001.5 |
| 20260505222604 | 80 | 331 | 5.0 | 6.0 | 0.00 | 0.00 | 0.00 | 38 | 1001.5 |
| 20260505222100 | 80 | 331 | 4.0 | 5.0 | 0.00 | 0.00 | 0.00 | 37 | 1001.5 |
| 20260505221557 | 80 | 331 | 3.0 | 5.0 | 0.00 | 0.00 | 0.00 | 39 | 1001.5 |
| 20260505221053 | 79 | 331 | 6.0 | 7.0 | 0.00 | 0.00 | 0.00 | 39 | 1001.5 |
| 20260505220551 | 81 | 331 | 6.0 | 8.0 | 0.00 | 0.00 | 0.00 | 38 | 1001.4 |
| 20260505220048 | 82 | 331 | 3.0 | 5.0 | 0.00 | 0.00 | 0.00 | 36 | 1001.4 |
| 20260505215546 | 81 | 331 | 4.0 | 6.0 | 0.00 | 0.00 | 0.00 | 37 | 1001.5 |
| 20260505215044 | 79 | 331 | 6.0 | 7.0 | 0.00 | 0.00 | 0.00 | 38 | 1001.4 |
| 20260505214542 | 81 | 331 | 5.0 | 8.0 | 0.00 | 0.00 | 0.00 | 38 | 1001.2 |
| 20260505214038 | 81 | 332 | 6.0 | 7.0 | 0.00 | 0.00 | 0.00 | 39 | 1001.3 |
| 20260505213536 | 81 | 331 | 7.0 | 10.0 | 0.00 | 0.00 | 0.00 | 38 | 1001.5 |
| 20260505213032 | 81 | 331 | 7.0 | 9.0 | 0.00 | 0.00 | 0.00 | 38 | 1001.5 |
| 20260505212529 | 81 | 331 | 4.0 | 5.0 | 0.00 | 0.00 | 0.00 | 39 | 1001.4 |
| 20260505212026 | 81 | 331 | 3.0 | 3.0 | 0.00 | 0.00 | 0.00 | 39 | 1001.6 |
| 20260505211523 | 80 | 331 | 4.0 | 5.0 | 0.00 | 0.00 | 0.00 | 38 | 1001.7 |
| 20260505211020 | 80 | 331 | 7.0 | 8.0 | 0.00 | 0.00 | 0.00 | 39 | 1001.7 |
| 20260505210516 | 80 | 331 | 5.0 | 6.0 | 0.00 | 0.00 | 0.00 | 39 | 1001.5 |
| 20260505210014 | 80 | 331 | 0.0 | 0.0 | 0.00 | 0.00 | 0.00 | 39 | 1001.7 |
| 20260505205512 | 80 | 331 | 5.0 | 6.0 | 0.00 | 0.00 | 0.00 | 38 | 1002.0 |
| 20260505205009 | 80 | 331 | 5.0 | 6.0 | 0.00 | 0.00 | 0.00 | 38 | 1002.0 |
| 20260505204506 | 82 | 331 | 8.0 | 10.0 | 0.00 | 0.00 | 0.00 | 37 | 1002.0 |
| 20260505204003 | 82 | 331 | 9.0 | 13.0 | 0.00 | 0.00 | 0.00 | 36 | 1002.0 |
| 20260505203500 | 81 | 331 | 8.0 | 9.0 | 0.00 | 0.00 | 0.00 | 37 | 1001.8 |
| 20260505202956 | 84 | 332 | 8.0 | 10.0 | 0.00 | 0.00 | 0.00 | 36 | 1001.9 |
| 20260505202453 | 85 | 331 | 9.0 | 11.0 | 0.00 | 0.00 | 0.00 | 33 | 1002.2 |
| 20260505201949 | 82 | 331 | 7.0 | 9.0 | 0.00 | 0.00 | 0.00 | 35 | 1002.1 |
| 20260505201446 | 82 | 331 | 5.0 | 7.0 | 0.00 | 0.00 | 0.00 | 37 | 1002.3 |
| 20260505200944 | 81 | 331 | 6.0 | 8.0 | 0.00 | 0.00 | 0.00 | 38 | 1002.4 |
| 20260505200441 | 81 | 331 | 4.0 | 6.0 | 0.00 | 0.00 | 0.00 | 37 | 1002.3 |
| 20260505195937 | 82 | 331 | 4.0 | 6.0 | 0.00 | 0.00 | 0.00 | 36 | 1002.3 |
| 20260505195434 | 82 | 331 | 7.0 | 9.0 | 0.00 | 0.00 | 0.00 | 36 | 1002.4 |
| 20260505194931 | 80 | 331 | 5.0 | 7.0 | 0.00 | 0.00 | 0.00 | 37 | 1002.4 |
| 20260505194429 | 79 | 331 | 2.0 | 2.0 | 0.00 | 0.00 | 0.00 | 39 | 1002.5 |
| 20260505193928 | 80 | 331 | 3.0 | 5.0 | 0.00 | 0.00 | 0.00 | 38 | 1002.6 |
| 20260505193426 | 81 | 331 | 2.0 | 5.0 | 0.00 | 0.00 | 0.00 | 36 | 1002.6 |
| 20260505192924 | 82 | 331 | 2.0 | 2.0 | 0.00 | 0.00 | 0.00 | 37 | 1002.9 |
| 20260505192422 | 83 | 331 | 5.0 | 9.0 | 0.00 | 0.00 | 0.00 | 33 | 1002.9 |
| 20260505191919 | 81 | 331 | 7.0 | 8.0 | 0.00 | 0.00 | 0.00 | 37 | 1003.1 |
| 20260505191418 | 81 | 331 | 7.0 | 9.0 | 0.00 | 0.00 | 0.00 | 36 | 1003.0 |
| 20260505190914 | 84 | 332 | 6.0 | 8.0 | 0.00 | 0.00 | 0.00 | 34 | 1003.0 |
| 20260505190410 | 81 | 331 | 3.0 | 7.0 | 0.00 | 0.00 | 0.00 | 36 | 1003.0 |
| 20260505185905 | 80 | 331 | 8.0 | 9.0 | 0.00 | 0.00 | 0.00 | 36 | 1003.3 |
| 20260505185403 | 80 | 331 | 6.0 | 9.0 | 0.00 | 0.00 | 0.00 | 36 | 1003.3 |
| 20260505184858 | 80 | 331 | 8.0 | 9.0 | 0.00 | 0.00 | 0.00 | 37 | 1003.6 |
| 20260505184356 | 82 | 331 | 3.0 | 5.0 | 0.00 | 0.00 | 0.00 | 36 | 1003.6 |
| 20260505183853 | 80 | 331 | 6.0 | 10.0 | 0.00 | 0.00 | 0.00 | 36 | 1003.8 |
| 20260505183349 | 80 | 331 | 9.0 | 11.0 | 0.00 | 0.00 | 0.00 | 37 | 1003.9 |
| 20260505182846 | 83 | 331 | 11.0 | 13.0 | 0.00 | 0.00 | 0.00 | 36 | 1003.9 |
| 20260505182343 | 82 | 331 | 5.0 | 7.0 | 0.00 | 0.00 | 0.00 | 38 | 1004.0 |
| 20260505181840 | 83 | 331 | 3.0 | 6.0 | 0.00 | 0.00 | 0.00 | 37 | 1004.2 |
| 20260505181337 | 80 | 331 | 4.0 | 6.0 | 0.00 | 0.00 | 0.00 | 39 | 1004.1 |
| 20260505180833 | 81 | 331 | 5.0 | 6.0 | 0.00 | 0.00 | 0.00 | 39 | 1004.1 |
| 20260505180330 | 83 | 331 | 1.0 | 1.0 | 0.00 | 0.00 | 0.00 | 38 | 1003.9 |
| 20260505175826 | 82 | 331 | 7.0 | 9.0 | 0.00 | 0.00 | 0.00 | 37 | 1004.1 |
| 20260505175323 | 81 | 331 | 9.0 | 9.0 | 0.00 | 0.00 | 0.00 | 37 | 1004.1 |
| 20260505174819 | 80 | 331 | 3.0 | 3.0 | 0.00 | 0.00 | 0.00 | 40 | 1003.8 |
| 20260505174317 | 81 | 331 | 6.0 | 8.0 | 0.00 | 0.00 | 0.00 | 37 | 1003.9 |
| 20260505173813 | 80 | 331 | 2.0 | 2.0 | 0.00 | 0.00 | 0.00 | 38 | 1003.8 |
| 20260505173309 | 80 | 331 | 8.0 | 10.0 | 0.00 | 0.00 | 0.00 | 35 | 1003.6 |
| 20260505172807 | 79 | 331 | 10.0 | 13.0 | 0.00 | 0.00 | 0.00 | 39 | 1003.9 |
| 20260505172306 | 82 | 331 | 12.0 | 14.0 | 0.00 | 0.00 | 0.00 | 37 | 1004.0 |
| 20260505171758 | 79 | 331 | 6.0 | 8.0 | 0.00 | 0.00 | 0.00 | 39 | 1004.2 |
| 20260505171255 | 80 | 331 | 8.0 | 10.0 | 0.00 | 0.00 | 0.00 | 37 | 1004.0 |
| 20260505170752 | 80 | 331 | 13.0 | 15.0 | 0.00 | 0.00 | 0.00 | 36 | 1004.1 |
| 20260505170249 | 79 | 331 | 4.0 | 7.0 | 0.00 | 0.00 | 0.00 | 40 | 1004.4 |
| 20260505165744 | 80 | 331 | 8.0 | 9.0 | 0.00 | 0.00 | 0.00 | 39 | 1004.2 |
| 20260505165240 | 79 | 331 | 3.0 | 3.0 | 0.00 | 0.00 | 0.00 | 42 | 1004.5 |
| 20260505164736 | 80 | 331 | 1.0 | 2.0 | 0.00 | 0.00 | 0.00 | 42 | 1004.6 |
| 20260505164233 | 78 | 331 | 8.0 | 10.0 | 0.00 | 0.00 | 0.00 | 44 | 1004.6 |
| 20260505163732 | 78 | 331 | 7.0 | 8.0 | 0.00 | 0.00 | 0.00 | 40 | 1004.7 |
| 20260505163230 | 81 | 331 | 2.0 | 5.0 | 0.00 | 0.00 | 0.00 | 40 | 1004.9 |
| 20260505162727 | 78 | 331 | 6.0 | 7.0 | 0.00 | 0.00 | 0.00 | 44 | 1004.7 |
| 20260505162224 | 80 | 331 | 5.0 | 9.0 | 0.00 | 0.00 | 0.00 | 38 | 1004.7 |
| 20260505161720 | 78 | 331 | 1.0 | 2.0 | 0.00 | 0.00 | 0.00 | 41 | 1004.8 |
| 20260505161218 | 78 | 331 | 4.0 | 7.0 | 0.00 | 0.00 | 0.00 | 42 | 1004.9 |
| 20260505160715 | 79 | 331 | 4.0 | 5.0 | 0.00 | 0.00 | 0.00 | 45 | 1004.9 |
| 20260505160213 | 81 | 331 | 5.0 | 7.0 | 0.00 | 0.00 | 0.00 | 44 | 1004.8 |
| 20260505153152 | 77 | 330 | 4.0 | 6.0 | 0.00 | 0.00 | 0.00 | 52 | 1005.1 |
| 20260505152649 | 77 | 330 | 3.0 | 5.0 | 0.00 | 0.00 | 0.00 | 51 | 1005.4 |
| 20260505152145 | 76 | 330 | 5.0 | 8.0 | 0.00 | 0.00 | 0.00 | 54 | 1005.1 |
| 20260505151640 | 78 | 330 | 4.0 | 7.0 | 0.00 | 0.00 | 0.00 | 53 | 1005.2 |
| 20260505151138 | 77 | 330 | 1.0 | 2.0 | 0.00 | 0.00 | 0.00 | 55 | 1005.2 |
| 20260505150634 | 77 | 330 | 3.0 | 3.0 | 0.00 | 0.00 | 0.00 | 56 | 1005.3 |
| 20260505150131 | 75 | 330 | 3.0 | 5.0 | 0.00 | 0.00 | 0.00 | 57 | 1005.4 |
| 20260505140559 | 70 | 330 | 6.0 | 7.0 | 0.00 | 0.00 | 0.00 | 66 | 1005.4 |
| 20260505125013 | 65 | 330 | 4.0 | 5.0 | 0.00 | 0.00 | 0.00 | 75 | 1005.2 |
| 20260505124510 | 64 | 329 | 4.0 | 5.0 | 0.00 | 0.00 | 0.00 | 76 | 1005.0 |
| 20260505124006 | 64 | 330 | 2.0 | 3.0 | 0.00 | 0.00 | 0.00 | 78 | 1005.0 |
| 20260505123503 | 63 | 330 | 2.0 | 2.0 | 0.00 | 0.00 | 0.00 | 79 | 1005.0 |
| 20260505122958 | 62 | 330 | 2.0 | 3.0 | 0.00 | 0.00 | 0.00 | 79 | 1004.8 |
| 20260505122456 | 62 | 330 | 6.0 | 8.0 | 0.00 | 0.00 | 0.00 | 79 | 1004.8 |
| 20260505121953 | 62 | 330 | 7.0 | 8.0 | 0.00 | 0.00 | 0.00 | 80 | 1004.8 |
| 20260505121449 | 61 | 330 | 3.0 | 5.0 | 0.00 | 0.00 | 0.00 | 81 | 1004.6 |
| 20260505120945 | 61 | 330 | 3.0 | 3.0 | 0.00 | 0.00 | 0.00 | 82 | 1004.7 |
| 20260505120442 | 60 | 330 | 2.0 | 3.0 | 0.00 | 0.00 | 0.00 | 83 | 1004.7 |
| 20260505115941 | 59 | 330 | 2.0 | 2.0 | 0.00 | 0.00 | 0.00 | 83 | 1004.7 |
| 20260505115438 | 59 | 330 | 3.0 | 5.0 | 0.00 | 0.00 | 0.00 | 84 | 1004.9 |
| 20260505114936 | 58 | 330 | 2.0 | 2.0 | 0.00 | 0.00 | 0.00 | 85 | 1004.8 |
| 20260505114432 | 58 | 330 | 4.0 | 5.0 | 0.00 | 0.00 | 0.00 | 85 | 1004.6 |
| 20260505113928 | 57 | 330 | 1.0 | 2.0 | 0.00 | 0.00 | 0.00 | 86 | 1004.7 |
| 20260505113425 | 57 | 329 | 1.0 | 2.0 | 0.00 | 0.00 | 0.00 | 87 | 1004.6 |
| 20260505112921 | 56 | 330 | 0.0 | 0.0 | 0.00 | 0.00 | 0.00 | 88 | 1004.6 |
| 20260505112419 | 55 | 330 | 0.0 | 0.0 | 0.00 | 0.00 | 0.00 | 90 | 1004.8 |
| 20260505111914 | 54 | 330 | 0.0 | 0.0 | 0.00 | 0.00 | 0.00 | 91 | 1004.5 |
| 20260505111409 | 54 | 330 | 1.0 | 1.0 | 0.00 | 0.00 | 0.00 | 92 | 1004.6 |
| 20260505110906 | 54 | 330 | 1.0 | 1.0 | 0.00 | 0.00 | 0.00 | 91 | 1004.3 |
| 20260505110403 | 54 | 330 | 0.0 | 0.0 | 0.00 | 0.00 | 0.00 | 92 | 1004.3 |
| 20260505101833 | 54 | 330 | 0.0 | 0.0 | 0.00 | 0.00 | 0.00 | 89 | 1004.1 |
| 20260505101328 | 54 | 330 | 1.0 | 1.0 | 0.00 | 0.00 | 0.00 | 90 | 1003.9 |
| 20260505100824 | 54 | 330 | 1.0 | 2.0 | 0.00 | 0.00 | 0.00 | 90 | 1004.0 |
| 20260505100321 | 54 | 330 | 0.0 | 0.0 | 0.00 | 0.00 | 0.00 | 90 | 1003.7 |
| 20260505095817 | 53 | 330 | 0.0 | 0.0 | 0.00 | 0.00 | 0.00 | 90 | 1004.0 |
| 20260505095315 | 54 | 330 | 1.0 | 1.0 | 0.00 | 0.00 | 0.00 | 90 | 1003.8 |
| 20260505094810 | 54 | 330 | 1.0 | 2.0 | 0.00 | 0.00 | 0.00 | 90 | 1003.8 |
| 20260505094308 | 54 | 330 | 1.0 | 2.0 | 0.00 | 0.00 | 0.00 | 90 | 1003.8 |
| 20260505093803 | 53 | 330 | 1.0 | 2.0 | 0.00 | 0.00 | 0.00 | 90 | 1003.8 |
| 20260505093301 | 54 | 330 | 1.0 | 1.0 | 0.00 | 0.00 | 0.00 | 89 | 1003.6 |
| 20260505092757 | 54 | 330 | 1.0 | 2.0 | 0.00 | 0.00 | 0.00 | 89 | 1003.7 |
| 20260505092256 | 53 | 330 | 1.0 | 2.0 | 0.00 | 0.00 | 0.00 | 89 | 1003.9 |
| 20260505091753 | 54 | 330 | 0.0 | 0.0 | 0.00 | 0.00 | 0.00 | 88 | 1003.8 |
| 20260505091250 | 54 | 330 | 1.0 | 1.0 | 0.00 | 0.00 | 0.00 | 87 | 1003.6 |
| 20260505090748 | 55 | 330 | 1.0 | 1.0 | 0.00 | 0.00 | 0.00 | 87 | 1003.7 |
| 20260505090246 | 55 | 330 | 1.0 | 2.0 | 0.00 | 0.00 | 0.00 | 86 | 1003.7 |
| 20260505085743 | 55 | 330 | 2.0 | 2.0 | 0.00 | 0.00 | 0.00 | 86 | 1003.6 |
| 20260505085242 | 55 | 330 | 1.0 | 1.0 | 0.00 | 0.00 | 0.00 | 86 | 1003.7 |
| 20260505084738 | 55 | 330 | 1.0 | 1.0 | 0.00 | 0.00 | 0.00 | 86 | 1003.8 |
| 20260505084238 | 55 | 330 | 2.0 | 2.0 | 0.00 | 0.00 | 0.00 | 85 | 1003.5 |
| 20260505083734 | 55 | 330 | 2.0 | 2.0 | 0.00 | 0.00 | 0.00 | 86 | 1003.5 |
| 20260505083231 | 55 | 330 | 2.0 | 2.0 | 0.00 | 0.00 | 0.00 | 85 | 1003.7 |
| 20260505082727 | 55 | 330 | 2.0 | 2.0 | 0.00 | 0.00 | 0.00 | 85 | 1003.5 |
| 20260505082224 | 55 | 330 | 2.0 | 2.0 | 0.00 | 0.00 | 0.00 | 85 | 1003.6 |
| 20260505081720 | 55 | 330 | 1.0 | 1.0 | 0.00 | 0.00 | 0.00 | 84 | 1003.6 |
| 20260505081217 | 55 | 330 | 2.0 | 2.0 | 0.00 | 0.00 | 0.00 | 84 | 1003.6 |
| 20260505080714 | 55 | 330 | 1.0 | 2.0 | 0.00 | 0.00 | 0.00 | 84 | 1003.4 |
| 20260505080210 | 55 | 330 | 2.0 | 2.0 | 0.00 | 0.00 | 0.00 | 84 | 1003.5 |
| 20260505075706 | 55 | 330 | 2.0 | 2.0 | 0.00 | 0.00 | 0.00 | 84 | 1003.3 |
| 20260505075203 | 55 | 330 | 1.0 | 1.0 | 0.00 | 0.00 | 0.00 | 83 | 1003.7 |
| 20260505074700 | 55 | 330 | 1.0 | 2.0 | 0.00 | 0.00 | 0.00 | 82 | 1003.4 |
| 20260505074157 | 56 | 330 | 2.0 | 2.0 | 0.00 | 0.00 | 0.00 | 83 | 1003.2 |
| 20260505073654 | 55 | 330 | 1.0 | 1.0 | 0.00 | 0.00 | 0.00 | 83 | 1003.4 |
| 20260505073153 | 55 | 330 | 1.0 | 1.0 | 0.00 | 0.00 | 0.00 | 83 | 1003.4 |
| 20260505072648 | 56 | 330 | 1.0 | 2.0 | 0.00 | 0.00 | 0.00 | 82 | 1003.2 |
| 20260505072145 | 56 | 330 | 1.0 | 1.0 | 0.00 | 0.00 | 0.00 | 81 | 1003.3 |
| 20260505071640 | 56 | 330 | 1.0 | 2.0 | 0.00 | 0.00 | 0.00 | 82 | 1003.5 |
| 20260505071138 | 56 | 330 | 1.0 | 1.0 | 0.00 | 0.00 | 0.00 | 81 | 1003.4 |
| 20260505070635 | 56 | 330 | 1.0 | 1.0 | 0.00 | 0.00 | 0.00 | 81 | 1003.3 |
| 20260505070132 | 56 | 330 | 1.0 | 2.0 | 0.00 | 0.00 | 0.00 | 80 | 1003.4 |
| 20260505065628 | 57 | 330 | 3.0 | 3.0 | 0.00 | 0.00 | 0.00 | 79 | 1003.3 |
| 20260505065124 | 57 | 330 | 3.0 | 3.0 | 0.00 | 0.00 | 0.00 | 79 | 1003.5 |
| 20260505064621 | 57 | 330 | 1.0 | 2.0 | 0.00 | 0.00 | 0.00 | 79 | 1003.4 |
| 20260505064120 | 57 | 330 | 3.0 | 3.0 | 0.00 | 0.00 | 0.00 | 79 | 1003.2 |
| 20260505063617 | 57 | 330 | 3.0 | 3.0 | 0.00 | 0.00 | 0.00 | 78 | 1003.5 |
| 20260505063113 | 57 | 330 | 2.0 | 3.0 | 0.00 | 0.00 | 0.00 | 77 | 1003.6 |
| 20260505062609 | 58 | 330 | 2.0 | 2.0 | 0.00 | 0.00 | 0.00 | 77 | 1003.3 |
| 20260505062107 | 58 | 330 | 2.0 | 2.0 | 0.00 | 0.00 | 0.00 | 76 | 1003.4 |
| 20260505061604 | 58 | 331 | 2.0 | 3.0 | 0.00 | 0.00 | 0.00 | 75 | 1003.4 |
| 20260505061102 | 58 | 330 | 4.0 | 6.0 | 0.00 | 0.00 | 0.00 | 75 | 1003.5 |
| 20260505060559 | 59 | 330 | 4.0 | 5.0 | 0.00 | 0.00 | 0.00 | 75 | 1003.7 |
| 20260505060056 | 59 | 330 | 3.0 | 3.0 | 0.00 | 0.00 | 0.00 | 75 | 1003.6 |
| 20260505055551 | 59 | 330 | 3.0 | 3.0 | 0.00 | 0.00 | 0.00 | 74 | 1003.6 |
| 20260505055048 | 59 | 331 | 2.0 | 3.0 | 0.00 | 0.00 | 0.00 | 74 | 1003.6 |
| 20260505054545 | 59 | 331 | 1.0 | 1.0 | 0.00 | 0.00 | 0.00 | 74 | 1003.8 |
| 20260505054043 | 59 | 331 | 1.0 | 1.0 | 0.00 | 0.00 | 0.00 | 74 | 1003.8 |
| 20260505053540 | 59 | 330 | 1.0 | 1.0 | 0.00 | 0.00 | 0.00 | 74 | 1003.8 |
| 20260505053037 | 59 | 331 | 2.0 | 2.0 | 0.00 | 0.00 | 0.00 | 73 | 1003.9 |
| 20260505052533 | 59 | 331 | 1.0 | 1.0 | 0.00 | 0.00 | 0.00 | 73 | 1004.0 |
| 20260505052031 | 59 | 330 | 2.0 | 2.0 | 0.00 | 0.00 | 0.00 | 73 | 1003.7 |
| 20260505051528 | 59 | 330 | 1.0 | 2.0 | 0.00 | 0.00 | 0.00 | 73 | 1003.8 |
| 20260505051026 | 59 | 330 | 2.0 | 3.0 | 0.00 | 0.00 | 0.00 | 73 | 1003.9 |
| 20260505050524 | 59 | 330 | 2.0 | 2.0 | 0.00 | 0.00 | 0.00 | 72 | 1003.9 |
| 20260505041451 | 61 | 331 | 3.0 | 5.0 | 0.00 | 0.00 | 0.00 | 69 | 1004.0 |
| 20260505040949 | 61 | 330 | 4.0 | 5.0 | 0.00 | 0.00 | 0.00 | 69 | 1004.1 |
| 20260505040446 | 61 | 330 | 2.0 | 2.0 | 0.00 | 0.00 | 0.00 | 69 | 1003.9 |
| 20260505035943 | 61 | 330 | 2.0 | 2.0 | 0.00 | 0.00 | 0.00 | 69 | 1004.2 |
| 20260505035439 | 61 | 330 | 1.0 | 1.0 | 0.00 | 0.00 | 0.00 | 69 | 1004.0 |
| 20260505034936 | 61 | 330 | 1.0 | 2.0 | 0.00 | 0.00 | 0.00 | 68 | 1004.0 |
| 20260505034432 | 62 | 330 | 1.0 | 1.0 | 0.00 | 0.00 | 0.00 | 68 | 1004.0 |
| 20260505033930 | 62 | 330 | 2.0 | 2.0 | 0.00 | 0.00 | 0.00 | 68 | 1004.1 |
| 20260505033426 | 62 | 331 | 3.0 | 5.0 | 0.00 | 0.00 | 0.00 | 67 | 1004.0 |
| 20260505032925 | 62 | 331 | 3.0 | 3.0 | 0.00 | 0.00 | 0.00 | 67 | 1004.3 |
| 20260505032421 | 62 | 331 | 3.0 | 3.0 | 0.00 | 0.00 | 0.00 | 67 | 1004.0 |
| 20260505031918 | 63 | 331 | 3.0 | 3.0 | 0.00 | 0.00 | 0.00 | 66 | 1004.0 |
| 20260505031415 | 63 | 331 | 3.0 | 3.0 | 0.00 | 0.00 | 0.00 | 65 | 1004.5 |
| 20260505030912 | 63 | 331 | 1.0 | 1.0 | 0.00 | 0.00 | 0.00 | 66 | 1004.2 |
| 20260505030408 | 63 | 331 | 4.0 | 5.0 | 0.00 | 0.00 | 0.00 | 65 | 1004.0 |
| 20260505025903 | 64 | 331 | 3.0 | 3.0 | 0.00 | 0.00 | 0.00 | 64 | 1004.1 |
| 20260505025401 | 64 | 331 | 2.0 | 2.0 | 0.00 | 0.00 | 0.00 | 63 | 1004.1 |
| 20260505024900 | 64 | 331 | 3.0 | 3.0 | 0.00 | 0.00 | 0.00 | 63 | 1004.4 |
| 20260505024357 | 64 | 331 | 2.0 | 2.0 | 0.00 | 0.00 | 0.00 | 63 | 1004.1 |